createdAt,value
2023-03-31T00:03:29.620Z,994.12
2023-03-31T00:13:35.674Z,993.87
2023-03-31T00:23:41.044Z,993.75
2023-03-31T00:33:46.601Z,993.52
2023-03-31T00:43:52.483Z,993.40
2023-03-31T00:53:58.345Z,993.26
2023-03-31T01:04:04.103Z,993.14
2023-03-31T01:14:10.195Z,993.04
2023-03-31T01:24:15.637Z,992.86
2023-03-31T01:34:21.294Z,992.75
2023-03-31T01:44:27.021Z,992.64
2023-03-31T01:54:32.595Z,992.58
2023-03-31T02:04:38.358Z,992.43
2023-03-31T02:14:43.904Z,992.28
2023-03-31T02:24:49.865Z,992.20
2023-03-31T02:34:56.382Z,991.99
2023-03-31T02:45:02.698Z,991.79
2023-03-31T02:55:08.602Z,991.65
2023-03-31T03:05:14.699Z,991.57
2023-03-31T03:15:21.242Z,991.32
2023-03-31T03:25:27.282Z,991.26
2023-03-31T03:35:33.004Z,991.15
2023-03-31T03:45:39.195Z,991.08
2023-03-31T03:55:45.491Z,990.83
2023-03-31T04:05:51.072Z,990.60
2023-03-31T04:15:57.544Z,990.50
2023-03-31T04:26:04.027Z,990.23
2023-03-31T04:36:10.009Z,990.05
2023-03-31T04:46:16.576Z,989.81
2023-03-31T04:56:21.458Z,989.49
2023-03-31T05:06:26.736Z,989.35
2023-03-31T05:16:32.788Z,989.18
2023-03-31T05:26:40.499Z,989.03
2023-03-31T05:36:48.177Z,988.99
2023-03-31T05:46:55.338Z,989.08
2023-03-31T05:57:02.629Z,988.96
2023-03-31T06:07:09.833Z,988.78
2023-03-31T06:17:16.625Z,988.41
2023-03-31T06:27:23.171Z,988.20
2023-03-31T06:37:30.199Z,987.83
2023-03-31T06:47:36.537Z,987.98
2023-03-31T06:57:43.441Z,988.11
2023-03-31T07:07:49.577Z,988.00
2023-03-31T07:17:56.217Z,987.91
2023-03-31T07:28:02.468Z,987.74
2023-03-31T07:38:09.378Z,987.60
2023-03-31T07:48:15.874Z,987.60
2023-03-31T07:58:22.839Z,987.44
2023-03-31T08:08:29.247Z,987.22
2023-03-31T08:18:35.933Z,987.03
2023-03-31T08:28:42.597Z,986.87
2023-03-31T08:38:48.735Z,986.84
2023-03-31T08:48:54.994Z,986.61
2023-03-31T08:59:00.771Z,986.38
2023-03-31T09:09:07.044Z,986.20
2023-03-31T09:19:12.422Z,986.14
2023-03-31T09:29:18.560Z,986.05
2023-03-31T09:39:24.671Z,985.75
2023-03-31T09:49:30.835Z,985.38
2023-03-31T09:59:36.804Z,985.12
2023-03-31T10:09:43.101Z,985.01
2023-03-31T10:19:49.025Z,984.86
2023-03-31T10:29:55.068Z,984.77
2023-03-31T10:40:01.351Z,984.64
2023-03-31T10:50:07.815Z,984.41
2023-03-31T11:00:13.905Z,984.21
2023-03-31T11:10:20.256Z,984.27
2023-03-31T11:20:26.069Z,984.55
2023-03-31T11:30:32.696Z,984.49
2023-03-31T11:40:39.448Z,984.46
2023-03-31T11:50:45.719Z,984.41
2023-03-31T12:00:51.892Z,984.25
2023-03-31T12:10:57.822Z,984.01
2023-03-31T12:21:04.184Z,983.78
2023-03-31T12:31:10.517Z,983.80
2023-03-31T12:41:16.899Z,983.67
2023-03-31T12:51:23.066Z,983.68
2023-03-31T13:01:29.000Z,983.82
2023-03-31T13:11:35.518Z,983.86
2023-03-31T13:21:41.900Z,983.79
2023-03-31T13:31:48.493Z,983.78
2023-03-31T13:41:55.128Z,983.74
2023-03-31T13:52:01.316Z,983.68
2023-03-31T14:02:07.226Z,983.73
2023-03-31T14:12:13.318Z,983.62
2023-03-31T14:22:19.803Z,983.62
2023-03-31T14:32:26.063Z,983.68
2023-03-31T14:42:32.001Z,983.59
2023-03-31T14:56:38.159Z,983.39
2023-03-31T15:06:42.355Z,983.33
2023-03-31T15:16:48.012Z,983.41
2023-03-31T15:26:55.413Z,983.47
2023-03-31T15:37:01.901Z,983.36
2023-03-31T15:47:07.323Z,983.36
2023-03-31T15:57:14.322Z,983.25
2023-03-31T16:07:19.960Z,983.32
2023-03-31T16:17:25.978Z,983.35
2023-03-31T16:27:31.396Z,983.28
2023-03-31T16:37:37.105Z,983.32
2023-03-31T16:47:45.240Z,983.40
2023-03-31T16:57:51.563Z,983.36
2023-03-31T17:08:00.070Z,983.51
2023-03-31T17:18:05.842Z,983.53
2023-03-31T17:29:31.338Z,983.60
2023-03-31T17:39:36.374Z,983.69
2023-03-31T17:49:41.555Z,983.90
2023-03-31T17:59:47.570Z,983.85
2023-03-31T18:09:55.682Z,983.92
2023-03-31T18:20:01.519Z,984.04
2023-03-31T18:30:09.317Z,983.99
2023-03-31T18:40:15.151Z,983.88
2023-03-31T18:50:21.113Z,983.95
2023-03-31T19:00:26.884Z,984.02
2023-03-31T19:10:32.602Z,984.15
2023-03-31T19:20:38.603Z,984.20
2023-03-31T19:30:44.608Z,984.28
2023-03-31T19:40:53.469Z,984.27
2023-03-31T19:50:59.093Z,984.30
2023-03-31T20:01:04.523Z,984.16
2023-03-31T20:11:09.882Z,984.14
2023-03-31T20:21:16.032Z,984.06
2023-03-31T20:31:21.566Z,984.10
2023-03-31T20:41:28.420Z,984.25
2023-03-31T20:51:31.489Z,984.13
2023-03-31T21:01:36.352Z,984.10
2023-03-31T21:11:46.962Z,984.01
2023-03-31T21:23:13.438Z,984.01
2023-03-31T21:33:18.684Z,983.98
2023-03-31T21:43:24.562Z,984.02
2023-03-31T21:53:31.585Z,984.12
2023-03-31T22:03:38.740Z,984.14
2023-03-31T22:13:44.357Z,984.17
2023-03-31T22:23:49.830Z,984.24
2023-03-31T22:33:55.855Z,984.24
2023-03-31T22:44:01.447Z,984.24
2023-03-31T22:54:07.126Z,984.23
2023-03-31T23:04:12.938Z,984.13
2023-03-31T23:14:18.869Z,984.14
2023-03-31T23:24:24.538Z,984.23
2023-03-31T23:34:30.404Z,984.12
2023-03-31T23:44:36.053Z,984.12
2023-03-31T23:54:41.206Z,984.16
